Time;durP1;ratioP1;P1;durP2;ratioP2;P2;SDS_P1;SDS_P2;PMS_P1;PMS_P2;Temp;Humidity;BMP_temperature;BMP_pressure;BME280_temperature;BME280_humidity;BME280_pressure;Samples;Min_cycle;Max_cycle;Signal;HPM_P1;HPM_P2
2021/10/25 00:00:43;;;;;;;7.00;6.25;;;;;;;;;;2089550;28;20643;-53
2021/10/25 00:01:43;;;;;;;6.80;6.20;;;;;;;;;;2081349;28;20204;-52
2021/10/25 00:02:46;;;;;;;7.40;6.70;;;;;;;;;;2089657;28;20168;-56
2021/10/25 00:03:46;;;;;;;7.43;6.70;;;;;;;;;;2083212;28;20180;-56
2021/10/25 00:04:46;;;;;;;6.93;6.43;;;;;;;;;;2085246;28;20172;-56
2021/10/25 00:05:47;;;;;;;6.97;6.38;;;;;;;;;;2081550;28;20254;-53
2021/10/25 00:06:47;;;;;;;7.22;6.72;;;;;;;;;;2081059;28;20716;-53
2021/10/25 00:07:47;;;;;;;7.30;6.70;;;;;;;;;;2077379;28;20637;-52
2021/10/25 00:08:47;;;;;;;7.22;6.40;;;;;;;;;;2088579;28;20195;-55
2021/10/25 00:09:48;;;;;;;7.85;7.07;;;;;;;;;;2092847;28;20181;-54
2021/10/25 00:10:48;;;;;;;7.32;6.72;;;;;;;;;;2081747;28;20223;-57
2021/10/25 00:11:49;;;;;;;7.43;6.53;;;;;;;;;;2094044;28;20230;-57
2021/10/25 00:12:49;;;;;;;8.82;6.90;;;;;;;;;;2087563;28;20184;-56
2021/10/25 00:13:50;;;;;;;7.80;7.10;;;;;;;;;;2087710;28;20173;-55
2021/10/25 00:14:50;;;;;;;7.38;6.50;;;;;;;;;;2091920;28;20200;-56
2021/10/25 00:15:50;;;;;;;8.57;7.07;;;;;;;;;;2095173;28;20170;-56
2021/10/25 00:16:51;;;;;;;10.43;6.85;;;;;;;;;;2087314;28;20188;-56
2021/10/25 00:17:52;;;;;;;8.70;6.83;;;;;;;;;;2080023;28;20645;-56
2021/10/25 00:18:52;;;;;;;8.13;7.33;;;;;;;;;;2078209;28;20197;-56
2021/10/25 00:19:52;;;;;;;7.80;7.03;;;;;;;;;;2090729;28;20263;-55
2021/10/25 00:20:52;;;;;;;7.87;7.17;;;;;;;;;;2092751;28;20203;-56
2021/10/25 00:21:53;;;;;;;7.87;7.17;;;;;;;;;;2085705;28;20602;-54
2021/10/25 00:22:53;;;;;;;7.87;7.10;;;;;;;;;;2091961;28;20254;-56
2021/10/25 00:23:53;;;;;;;10.38;7.07;;;;;;;;;;2084238;28;20168;-54
2021/10/25 00:24:54;;;;;;;8.13;7.30;;;;;;;;;;2090260;28;20179;-57
2021/10/25 00:25:54;;;;;;;7.17;6.47;;;;;;;;;;2093309;28;20675;-57
2021/10/25 00:26:54;;;;;;;7.60;6.90;;;;;;;;;;2086866;28;20699;-55
2021/10/25 00:27:55;;;;;;;8.73;7.18;;;;;;;;;;2088132;28;20187;-51
2021/10/25 00:28:55;;;;;;;8.07;6.70;;;;;;;;;;2082181;28;20584;-56
2021/10/25 00:29:56;;;;;;;9.07;7.47;;;;;;;;;;2086875;28;20203;-53
2021/10/25 00:30:56;;;;;;;8.60;7.22;;;;;;;;;;2086928;28;20171;-53
2021/10/25 00:31:56;;;;;;;10.23;6.67;;;;;;;;;;2074169;28;20206;-51
2021/10/25 00:32:57;;;;;;;9.45;7.57;;;;;;;;;;2073442;28;20177;-53
2021/10/25 00:33:57;;;;;;;12.20;6.80;;;;;;;;;;2081490;28;20173;-53
2021/10/25 00:34:57;;;;;;;10.23;7.10;;;;;;;;;;2087282;28;20248;-53
2021/10/25 00:35:57;;;;;;;7.87;7.13;;;;;;;;;;2081549;28;20172;-52
2021/10/25 00:37:02;;;;;;;7.50;6.90;;;;;;;;;;2075871;28;20191;-52
2021/10/25 00:38:03;;;;;;;8.03;7.33;;;;;;;;;;2083172;28;20629;-51
2021/10/25 00:39:05;;;;;;;9.23;7.72;;;;;;;;;;2087511;28;20168;-53
2021/10/25 00:40:06;;;;;;;8.55;7.47;;;;;;;;;;2082162;28;20192;-53
2021/10/25 00:41:06;;;;;;;8.07;7.25;;;;;;;;;;2082338;28;20231;-52
2021/10/25 00:42:07;;;;;;;8.30;7.17;;;;;;;;;;2078012;28;20266;-54
2021/10/25 00:43:07;;;;;;;8.95;7.28;;;;;;;;;;2075230;28;20180;-54
2021/10/25 00:44:08;;;;;;;8.15;7.35;;;;;;;;;;2090047;28;20199;-54
2021/10/25 00:45:08;;;;;;;7.57;6.88;;;;;;;;;;2088957;28;20167;-53
2021/10/25 00:46:10;;;;;;;8.23;6.73;;;;;;;;;;2088970;28;20183;-60
2021/10/25 00:47:10;;;;;;;8.73;7.83;;;;;;;;;;2086771;28;20202;-51
2021/10/25 00:48:11;;;;;;;9.03;7.63;;;;;;;;;;2079141;28;20178;-56
2021/10/25 00:49:11;;;;;;;8.02;7.32;;;;;;;;;;2086110;28;20589;-57
2021/10/25 00:50:11;;;;;;;8.32;7.53;;;;;;;;;;2096174;28;20170;-56
2021/10/25 00:51:12;;;;;;;9.73;7.80;;;;;;;;;;2098619;28;20202;-54
2021/10/25 00:52:13;;;;;;;10.73;7.93;;;;;;;;;;2088347;28;20203;-54
2021/10/25 00:53:13;;;;;;;8.70;7.53;;;;;;;;;;2084049;28;20231;-56
2021/10/25 00:54:14;;;;;;;7.93;7.23;;;;;;;;;;2093944;28;20221;-54
2021/10/25 00:55:14;;;;;;;8.40;7.60;;;;;;;;;;2082743;28;20233;-54
2021/10/25 00:56:14;;;;;;;9.57;7.93;;;;;;;;;;2081267;28;20259;-54
2021/10/25 00:57:15;;;;;;;8.37;7.57;;;;;;;;;;2081402;28;20680;-52
2021/10/25 00:58:15;;;;;;;9.77;7.77;;;;;;;;;;2087397;28;20664;-52
2021/10/25 00:59:17;;;;;;;8.77;7.95;;;;;;;;;;2084743;28;20181;-56
2021/10/25 01:00:17;;;;;;;8.50;7.80;;;;;;;;;;2085483;28;20613;-55
2021/10/25 01:01:17;;;;;;;9.03;8.17;;;;;;;;;;2091349;28;20203;-57
2021/10/25 01:02:19;;;;;;;8.80;8.00;;;;;;;;;;2089005;28;20172;-54
2021/10/25 01:03:19;;;;;;;8.43;7.73;;;;;;;;;;2089536;28;20212;-57
2021/10/25 01:04:20;;;;;;;9.48;8.18;;;;;;;;;;2092405;28;20174;-56
2021/10/25 01:05:20;;;;;;;8.80;7.93;;;;;;;;;;2094777;28;20175;-57
2021/10/25 01:06:22;;;;;;;9.57;8.07;;;;;;;;;;2084381;28;20259;-53
2021/10/25 01:07:23;;;;;;;9.70;8.50;;;;;;;;;;2082729;28;20250;-54
2021/10/25 01:08:23;;;;;;;12.20;8.17;;;;;;;;;;2082562;28;20175;-56
2021/10/25 01:09:24;;;;;;;9.30;8.40;;;;;;;;;;2082338;28;20160;-52
2021/10/25 01:10:24;;;;;;;9.23;8.33;;;;;;;;;;2090524;28;20183;-53
2021/10/25 01:11:25;;;;;;;10.30;8.60;;;;;;;;;;2090743;28;20257;-55
2021/10/25 01:12:26;;;;;;;9.90;8.67;;;;;;;;;;2082382;28;20198;-53
2021/10/25 01:13:26;;;;;;;9.70;7.93;;;;;;;;;;2090179;28;20213;-56
2021/10/25 01:14:27;;;;;;;9.53;8.23;;;;;;;;;;2088042;28;20588;-55
2021/10/25 01:15:28;;;;;;;11.87;9.27;;;;;;;;;;2074161;28;20177;-54
2021/10/25 01:16:28;;;;;;;8.90;8.07;;;;;;;;;;2082154;28;20667;-54
2021/10/25 01:17:29;;;;;;;8.63;7.83;;;;;;;;;;2081832;28;20184;-55
2021/10/25 01:18:29;;;;;;;9.07;7.73;;;;;;;;;;2081858;28;20559;-52
2021/10/25 01:19:30;;;;;;;8.67;7.90;;;;;;;;;;2082218;28;20164;-52
2021/10/25 01:20:31;;;;;;;9.73;7.87;;;;;;;;;;2082349;28;20238;-53
2021/10/25 01:21:31;;;;;;;12.27;7.83;;;;;;;;;;2073558;28;20204;-54
2021/10/25 01:22:31;;;;;;;9.37;8.40;;;;;;;;;;2065485;28;20220;-52
2021/10/25 01:23:32;;;;;;;9.27;8.37;;;;;;;;;;2073649;28;20213;-53
2021/10/25 01:24:32;;;;;;;8.73;7.93;;;;;;;;;;2072644;28;20211;-52
2021/10/25 01:25:33;;;;;;;9.10;7.47;;;;;;;;;;2081093;28;20172;-53
2021/10/25 01:26:35;;;;;;;9.73;8.53;;;;;;;;;;2081671;28;20540;-53
2021/10/25 01:27:36;;;;;;;13.90;8.10;;;;;;;;;;2081634;28;20172;-55
2021/10/25 01:28:37;;;;;;;9.52;8.07;;;;;;;;;;2082607;28;20284;-52
2021/10/25 01:29:37;;;;;;;8.30;7.53;;;;;;;;;;2088915;28;20254;-55
2021/10/25 01:30:39;;;;;;;8.63;7.83;;;;;;;;;;2088814;28;20184;-52
2021/10/25 01:31:39;;;;;;;9.07;7.97;;;;;;;;;;2080739;28;20229;-55
2021/10/25 01:32:41;;;;;;;9.20;8.30;;;;;;;;;;2081028;28;20183;-56
2021/10/25 01:33:43;;;;;;;10.80;8.13;;;;;;;;;;2080905;28;20188;-54
2021/10/25 01:34:43;;;;;;;9.20;8.37;;;;;;;;;;2089182;28;20167;-52
2021/10/25 01:35:44;;;;;;;11.23;8.73;;;;;;;;;;2089074;28;20184;-54
2021/10/25 01:36:46;;;;;;;10.23;9.07;;;;;;;;;;2079614;28;20180;-55
2021/10/25 01:37:46;;;;;;;10.17;8.80;;;;;;;;;;2073166;28;20534;-53
2021/10/25 01:38:46;;;;;;;9.52;8.63;;;;;;;;;;2080668;28;20176;-50
2021/10/25 01:39:48;;;;;;;10.47;8.33;;;;;;;;;;2088319;28;20229;-55
2021/10/25 01:40:50;;;;;;;9.40;8.53;;;;;;;;;;2088989;28;20187;-54
2021/10/25 01:41:50;;;;;;;10.60;9.50;;;;;;;;;;2081002;28;20196;-57
2021/10/25 01:42:50;;;;;;;10.10;8.90;;;;;;;;;;2081250;28;20184;-53
2021/10/25 01:43:51;;;;;;;9.67;8.67;;;;;;;;;;2080907;28;20214;-51
2021/10/25 01:44:51;;;;;;;9.50;8.57;;;;;;;;;;2077195;28;20169;-52
2021/10/25 01:45:52;;;;;;;9.73;8.87;;;;;;;;;;2072576;28;20243;-53
2021/10/25 01:46:52;;;;;;;10.10;9.10;;;;;;;;;;2072633;28;20211;-51
2021/10/25 01:48:05;;;;;;;10.63;9.50;;;;;;;;;;2079518;28;20172;-53
2021/10/25 01:49:05;;;;;;;11.67;9.50;;;;;;;;;;2078442;28;20173;-52
2021/10/25 01:50:06;;;;;;;10.10;9.10;;;;;;;;;;2072630;28;20183;-53
2021/10/25 01:51:06;;;;;;;12.77;9.17;;;;;;;;;;2078987;28;20283;-52
2021/10/25 01:52:08;;;;;;;10.00;8.50;;;;;;;;;;2088936;28;20263;-54
2021/10/25 01:53:15;;;;;;;10.93;9.63;;;;;;;;;;2082850;28;20238;-54
2021/10/25 01:54:22;;;;;;;13.27;9.43;;;;;;;;;;2080532;28;20164;-53
2021/10/25 01:55:23;;;;;;;10.13;8.93;;;;;;;;;;2072767;28;20660;-53
2021/10/25 01:56:24;;;;;;;10.87;8.93;;;;;;;;;;2072573;28;20592;-50
2021/10/25 01:57:26;;;;;;;9.57;8.67;;;;;;;;;;2072833;28;20308;-53
2021/10/25 01:58:29;;;;;;;12.97;9.47;;;;;;;;;;2072662;28;20181;-53
2021/10/25 01:59:32;;;;;;;10.03;9.07;;;;;;;;;;2081833;28;20172;-53
2021/10/25 02:00:35;;;;;;;11.17;9.13;;;;;;;;;;2072355;28;20247;-53
2021/10/25 02:01:35;;;;;;;10.93;9.33;;;;;;;;;;2083631;28;20648;-51
2021/10/25 02:02:35;;;;;;;10.17;9.17;;;;;;;;;;2080812;28;20181;-54
2021/10/25 02:03:36;;;;;;;11.30;9.80;;;;;;;;;;2078893;28;20176;-52
2021/10/25 02:04:55;;;;;;;12.57;9.73;;;;;;;;;;2073348;28;20171;-56
2021/10/25 02:05:56;;;;;;;11.40;9.50;;;;;;;;;;2072558;28;20181;-52
2021/10/25 02:06:58;;;;;;;10.93;9.43;;;;;;;;;;2072672;28;20600;-55
2021/10/25 02:08:00;;;;;;;10.77;9.60;;;;;;;;;;2080826;28;20175;-53
2021/10/25 02:09:04;;;;;;;10.00;9.00;;;;;;;;;;2064834;28;20173;-52
2021/10/25 02:10:06;;;;;;;11.43;10.07;;;;;;;;;;2056920;28;20225;-54
2021/10/25 02:11:07;;;;;;;10.93;9.43;;;;;;;;;;2064201;28;20161;-52
2021/10/25 02:12:10;;;;;;;11.53;8.63;;;;;;;;;;2072892;28;20271;-55
2021/10/25 02:13:15;;;;;;;11.23;9.43;;;;;;;;;;2080630;28;20531;-54
2021/10/25 02:14:16;;;;;;;10.00;8.97;;;;;;;;;;2081119;28;20230;-51
2021/10/25 02:15:16;;;;;;;9.70;8.47;;;;;;;;;;2080748;28;20226;-52
2021/10/25 02:16:17;;;;;;;11.10;9.10;;;;;;;;;;2079405;28;20645;-51
2021/10/25 02:17:17;;;;;;;11.60;9.70;;;;;;;;;;2080581;28;20282;-52
2021/10/25 02:18:31;;;;;;;11.70;9.47;;;;;;;;;;2075182;28;20195;-54
2021/10/25 02:19:33;;;;;;;10.13;8.97;;;;;;;;;;2076583;28;20573;-54
2021/10/25 02:20:41;;;;;;;12.37;9.60;;;;;;;;;;2067533;28;20185;-53
2021/10/25 02:21:44;;;;;;;11.90;9.07;;;;;;;;;;2084202;28;20206;-52
2021/10/25 02:22:44;;;;;;;10.40;9.33;;;;;;;;;;2072748;28;20608;-53
2021/10/25 02:23:45;;;;;;;10.10;9.10;;;;;;;;;;2079608;28;20194;-52
2021/10/25 02:24:47;;;;;;;11.57;9.60;;;;;;;;;;2082848;28;20208;-53
2021/10/25 02:25:48;;;;;;;12.33;9.93;;;;;;;;;;2080612;28;20272;-52
2021/10/25 02:26:51;;;;;;;10.50;9.40;;;;;;;;;;2076211;28;20238;-56
2021/10/25 02:27:51;;;;;;;10.03;9.03;;;;;;;;;;2080473;28;20337;-54
2021/10/25 02:28:52;;;;;;;10.97;9.27;;;;;;;;;;2072209;28;20209;-52
2021/10/25 02:29:52;;;;;;;10.77;9.67;;;;;;;;;;2080795;28;20168;-53
2021/10/25 02:30:56;;;;;;;10.70;9.60;;;;;;;;;;2086334;28;20179;-52
2021/10/25 02:31:57;;;;;;;11.27;9.57;;;;;;;;;;2078644;28;20505;-52
2021/10/25 02:32:57;;;;;;;11.30;10.10;;;;;;;;;;2075240;28;20184;-55
2021/10/25 02:33:57;;;;;;;11.40;8.93;;;;;;;;;;2081665;28;20208;-53
2021/10/25 02:34:59;;;;;;;12.83;10.73;;;;;;;;;;2087183;28;20222;-57
2021/10/25 02:35:59;;;;;;;10.47;9.47;;;;;;;;;;2078515;28;20252;-55
2021/10/25 02:37:03;;;;;;;10.53;9.30;;;;;;;;;;2078028;28;20188;-52
2021/10/25 02:38:03;;;;;;;13.80;9.87;;;;;;;;;;2075894;28;20180;-54
2021/10/25 02:39:06;;;;;;;11.57;10.20;;;;;;;;;;2074869;28;20267;-53
2021/10/25 02:40:08;;;;;;;11.30;10.30;;;;;;;;;;2068586;28;20172;-52
2021/10/25 02:41:09;;;;;;;13.13;9.60;;;;;;;;;;2078629;28;20250;-53
2021/10/25 02:42:10;;;;;;;11.13;10.03;;;;;;;;;;2067015;28;20226;-54
2021/10/25 02:43:12;;;;;;;10.80;9.67;;;;;;;;;;2068785;28;20170;-54
2021/10/25 02:44:12;;;;;;;10.83;9.73;;;;;;;;;;2066893;28;20177;-52
2021/10/25 02:45:12;;;;;;;11.63;9.70;;;;;;;;;;2075217;28;20690;-51
2021/10/25 02:46:13;;;;;;;9.97;9.07;;;;;;;;;;2076202;28;20620;-53
2021/10/25 02:47:17;;;;;;;10.70;9.60;;;;;;;;;;2080587;28;20204;-51
2021/10/25 02:48:18;;;;;;;11.40;10.07;;;;;;;;;;2076250;28;20168;-56
2021/10/25 02:49:19;;;;;;;10.77;9.77;;;;;;;;;;2076240;28;20177;-52
2021/10/25 02:50:20;;;;;;;11.17;9.87;;;;;;;;;;2076712;28;20617;-52
2021/10/25 02:51:21;;;;;;;12.10;10.90;;;;;;;;;;2080470;28;20176;-51
2021/10/25 02:52:26;;;;;;;12.63;10.40;;;;;;;;;;2085478;28;20176;-55
2021/10/25 02:53:29;;;;;;;13.40;10.50;;;;;;;;;;2091001;28;20163;-52
2021/10/25 02:54:29;;;;;;;11.33;10.23;;;;;;;;;;2085415;28;20264;-55
2021/10/25 02:55:29;;;;;;;12.73;10.40;;;;;;;;;;2085122;28;20239;-55
2021/10/25 02:56:32;;;;;;;11.47;10.33;;;;;;;;;;2081518;28;20671;-58
2021/10/25 02:57:32;;;;;;;11.00;9.83;;;;;;;;;;2075289;28;20184;-56
2021/10/25 02:58:33;;;;;;;10.70;9.67;;;;;;;;;;2079106;28;20172;-55
2021/10/25 02:59:34;;;;;;;11.20;10.10;;;;;;;;;;2074821;28;20227;-55
2021/10/25 03:00:37;;;;;;;13.77;9.97;;;;;;;;;;2079303;28;20177;-55
2021/10/25 03:01:42;;;;;;;11.17;10.03;;;;;;;;;;2067252;28;20201;-53
2021/10/25 03:02:45;;;;;;;11.40;10.33;;;;;;;;;;2073066;28;20195;-54
2021/10/25 03:03:48;;;;;;;11.33;10.20;;;;;;;;;;2070308;28;20173;-56
2021/10/25 03:04:55;;;;;;;11.17;9.60;;;;;;;;;;2079179;28;20164;-55
2021/10/25 03:05:57;;;;;;;10.60;9.60;;;;;;;;;;2074171;28;20180;-58
2021/10/25 03:06:58;;;;;;;10.70;9.53;;;;;;;;;;2080591;28;20279;-57
2021/10/25 03:07:59;;;;;;;11.93;9.60;;;;;;;;;;2069118;28;20198;-53
2021/10/25 03:09:00;;;;;;;13.30;9.60;;;;;;;;;;2074598;28;20185;-55
2021/10/25 03:10:00;;;;;;;11.87;10.23;;;;;;;;;;2076288;28;20681;-54
2021/10/25 03:11:02;;;;;;;12.73;10.47;;;;;;;;;;2081802;28;20177;-54
2021/10/25 03:12:03;;;;;;;15.03;9.87;;;;;;;;;;2081032;28;20234;-54
2021/10/25 03:13:06;;;;;;;14.93;12.33;;;;;;;;;;2076144;28;20181;-54
2021/10/25 03:14:07;;;;;;;13.03;11.03;;;;;;;;;;2077113;28;20172;-52
2021/10/25 03:15:24;;;;;;;23.83;17.90;;;;;;;;;;2085040;28;20592;-55
2021/10/25 03:16:25;;;;;;;12.37;10.73;;;;;;;;;;2084734;28;20181;-52
2021/10/25 03:17:26;;;;;;;15.27;13.00;;;;;;;;;;2086576;28;20215;-53
2021/10/25 03:18:39;;;;;;;13.63;10.63;;;;;;;;;;2084614;28;20188;-53
2021/10/25 03:19:40;;;;;;;13.77;11.30;;;;;;;;;;2081937;28;20187;-54
2021/10/25 03:20:41;;;;;;;13.67;10.93;;;;;;;;;;2072433;28;20688;-53
2021/10/25 03:21:42;;;;;;;13.33;11.47;;;;;;;;;;2080851;28;20227;-53
2021/10/25 03:22:43;;;;;;;11.33;9.00;;;;;;;;;;2088915;28;20244;-54
2021/10/25 03:23:45;;;;;;;14.47;11.83;;;;;;;;;;2089710;28;20180;-56
2021/10/25 03:24:46;;;;;;;26.53;19.70;;;;;;;;;;2080918;28;20177;-54
2021/10/25 03:25:47;;;;;;;17.80;12.87;;;;;;;;;;2082305;28;20180;-57
2021/10/25 03:26:48;;;;;;;15.20;13.03;;;;;;;;;;2082206;28;20203;-58
2021/10/25 03:27:49;;;;;;;24.90;18.20;;;;;;;;;;2075177;28;20177;-56
2021/10/25 03:28:49;;;;;;;13.27;11.00;;;;;;;;;;2072896;28;20173;-55
2021/10/25 03:29:50;;;;;;;16.63;13.53;;;;;;;;;;2075022;28;20185;-53
2021/10/25 03:30:52;;;;;;;17.87;14.77;;;;;;;;;;2075709;28;20171;-53
2021/10/25 03:31:53;;;;;;;16.83;12.57;;;;;;;;;;2079648;28;20553;-52
2021/10/25 03:32:55;;;;;;;20.13;16.27;;;;;;;;;;2082528;28;20164;-52
2021/10/25 03:34:14;;;;;;;20.90;14.50;;;;;;;;;;2082223;28;20259;-53
2021/10/25 03:35:15;;;;;;;15.93;12.93;;;;;;;;;;2082151;28;20180;-53
2021/10/25 03:36:17;;;;;;;23.63;14.70;;;;;;;;;;2077400;28;20192;-55
2021/10/25 03:37:18;;;;;;;17.03;12.97;;;;;;;;;;2079468;28;20199;-56
2021/10/25 03:38:19;;;;;;;20.00;14.17;;;;;;;;;;2087024;28;20183;-52
2021/10/25 03:39:23;;;;;;;14.30;11.30;;;;;;;;;;2088084;28;20927;-52
2021/10/25 03:40:23;;;;;;;13.77;10.60;;;;;;;;;;2079684;28;20530;-53
2021/10/25 03:41:30;;;;;;;15.03;11.03;;;;;;;;;;2077032;28;20208;-53
2021/10/25 03:42:37;;;;;;;14.53;10.60;;;;;;;;;;2087800;28;20217;-52
2021/10/25 03:43:43;;;;;;;11.03;9.83;;;;;;;;;;2089655;28;20167;-53
2021/10/25 03:44:53;;;;;;;13.40;9.90;;;;;;;;;;2089391;28;20168;-51
2021/10/25 03:47:08;;;;;;;12.23;9.30;;;;;;;;;;2082667;28;20216;-53
2021/10/25 03:48:27;;;;;;;11.27;8.73;;;;;;;;;;2082271;28;20255;-52
2021/10/25 03:49:53;;;;;;;12.83;9.93;;;;;;;;;;2076352;28;20683;-52
2021/10/25 03:51:14;;;;;;;13.40;9.77;;;;;;;;;;2082332;28;20358;-53
2021/10/25 03:53:42;;;;;;;12.83;10.50;;;;;;;;;;2082992;28;20164;-52
2021/10/25 03:54:49;;;;;;;10.97;9.80;;;;;;;;;;2083257;28;20171;-52
2021/10/25 03:57:38;;;;;;;11.97;10.03;;;;;;;;;;2085243;28;20192;-55
2021/10/25 04:04:30;;;;;;;10.50;9.40;;;;;;;;;;2072080;28;20177;-52
2021/10/25 04:28:25;;;;;;;14.50;10.90;;;;;;;;;;2080637;28;20176;-56
2021/10/25 04:29:28;;;;;;;12.47;10.67;;;;;;;;;;2086217;28;20175;-51
2021/10/25 04:30:31;;;;;;;12.43;10.30;;;;;;;;;;2080494;28;20227;-53
2021/10/25 04:31:33;;;;;;;13.17;11.77;;;;;;;;;;2081151;28;20198;-57
2021/10/25 04:32:34;;;;;;;12.27;10.97;;;;;;;;;;2086293;28;20267;-53
2021/10/25 04:33:37;;;;;;;12.97;11.43;;;;;;;;;;2081381;28;20306;-54
2021/10/25 04:34:46;;;;;;;14.97;11.60;;;;;;;;;;2073122;28;20575;-54
2021/10/25 04:36:18;;;;;;;12.57;10.80;;;;;;;;;;2079313;28;20641;-58
2021/10/25 04:37:25;;;;;;;16.33;11.07;;;;;;;;;;2085983;28;20226;-57
2021/10/25 04:38:35;;;;;;;12.80;10.97;;;;;;;;;;2078624;28;20173;-56
2021/10/25 04:39:35;;;;;;;12.60;10.90;;;;;;;;;;2081636;28;20760;-55
2021/10/25 04:40:40;;;;;;;12.53;11.33;;;;;;;;;;2082199;28;20176;-58
2021/10/25 04:41:40;;;;;;;13.27;11.90;;;;;;;;;;2079191;28;20168;-53
2021/10/25 04:42:40;;;;;;;12.40;11.30;;;;;;;;;;2081254;28;20204;-51
2021/10/25 04:43:44;;;;;;;12.30;10.90;;;;;;;;;;2081354;28;20187;-51
2021/10/25 04:44:44;;;;;;;16.13;10.57;;;;;;;;;;2085862;28;20182;-51
2021/10/25 04:45:46;;;;;;;12.63;11.33;;;;;;;;;;2082097;28;20700;-51
2021/10/25 04:46:46;;;;;;;11.57;10.37;;;;;;;;;;2080612;28;20174;-53
2021/10/25 04:47:47;;;;;;;11.63;10.50;;;;;;;;;;2073501;28;20177;-56
2021/10/25 04:49:07;;;;;;;11.47;10.40;;;;;;;;;;2075943;28;20188;-52
2021/10/25 04:50:26;;;;;;;13.30;10.97;;;;;;;;;;2081046;28;20176;-52
2021/10/25 04:51:42;;;;;;;13.37;10.57;;;;;;;;;;2088435;28;20182;-55
2021/10/25 04:52:54;;;;;;;15.80;10.67;;;;;;;;;;2070048;28;20196;-53
2021/10/25 04:53:56;;;;;;;13.40;10.50;;;;;;;;;;2073103;28;20196;-52
2021/10/25 04:55:02;;;;;;;11.80;10.63;;;;;;;;;;2083368;28;20808;-53
2021/10/25 04:56:02;;;;;;;11.20;10.00;;;;;;;;;;2082603;28;20180;-51
2021/10/25 04:57:03;;;;;;;12.60;9.90;;;;;;;;;;2080126;28;20223;-52
2021/10/25 04:58:03;;;;;;;11.60;10.40;;;;;;;;;;2086975;28;20263;-52
2021/10/25 04:59:04;;;;;;;11.67;10.47;;;;;;;;;;2085923;28;20172;-53
2021/10/25 05:00:06;;;;;;;13.17;10.80;;;;;;;;;;2084851;28;20180;-52
2021/10/25 05:01:06;;;;;;;11.53;10.33;;;;;;;;;;2081044;28;20560;-56
2021/10/25 05:02:07;;;;;;;11.93;10.73;;;;;;;;;;2072678;28;20208;-54
2021/10/25 05:03:07;;;;;;;12.40;10.50;;;;;;;;;;2082314;28;20173;-54
2021/10/25 05:04:08;;;;;;;11.97;10.23;;;;;;;;;;2073494;28;20645;-53
2021/10/25 05:05:09;;;;;;;13.67;11.50;;;;;;;;;;2067801;28;20196;-53
2021/10/25 05:06:16;;;;;;;12.47;10.93;;;;;;;;;;2078915;28;20188;-54
2021/10/25 05:07:17;;;;;;;14.17;10.37;;;;;;;;;;2070060;28;20227;-53
2021/10/25 05:08:17;;;;;;;12.07;10.43;;;;;;;;;;2081669;28;20191;-51
2021/10/25 05:09:18;;;;;;;11.90;10.77;;;;;;;;;;2076743;28;20172;-51
2021/10/25 05:10:18;;;;;;;13.13;10.67;;;;;;;;;;2077328;28;20180;-54
2021/10/25 05:11:18;;;;;;;11.50;10.37;;;;;;;;;;2089468;28;20546;-53
2021/10/25 05:12:19;;;;;;;12.43;11.07;;;;;;;;;;2088494;28;20664;-54
2021/10/25 05:13:20;;;;;;;12.77;11.57;;;;;;;;;;2076250;28;20211;-54
2021/10/25 05:14:20;;;;;;;13.80;11.47;;;;;;;;;;2076013;28;20279;-51
2021/10/25 05:15:27;;;;;;;12.73;10.87;;;;;;;;;;2067492;28;20172;-52
2021/10/25 05:16:27;;;;;;;17.07;12.23;;;;;;;;;;2068758;28;20740;-53
2021/10/25 05:17:41;;;;;;;12.40;11.17;;;;;;;;;;2075432;28;20259;-54
2021/10/25 05:18:42;;;;;;;14.27;11.50;;;;;;;;;;2075484;28;20177;-52
2021/10/25 05:19:42;;;;;;;12.63;11.33;;;;;;;;;;2076422;28;20238;-52
2021/10/25 05:20:48;;;;;;;16.83;12.47;;;;;;;;;;2084247;28;20180;-55
2021/10/25 05:21:49;;;;;;;17.37;12.13;;;;;;;;;;2075030;28;20216;-53
2021/10/25 05:22:49;;;;;;;15.90;12.20;;;;;;;;;;2081352;28;20183;-55
2021/10/25 05:23:49;;;;;;;13.07;11.50;;;;;;;;;;2077730;28;20665;-56
2021/10/25 05:24:50;;;;;;;17.17;12.00;;;;;;;;;;2079345;28;20173;-54
2021/10/25 05:25:51;;;;;;;13.83;10.97;;;;;;;;;;2082490;28;20199;-55
2021/10/25 05:26:51;;;;;;;13.37;11.07;;;;;;;;;;2086062;28;20211;-54
2021/10/25 05:27:51;;;;;;;14.57;11.03;;;;;;;;;;2081936;28;20220;-56
2021/10/25 05:28:52;;;;;;;15.80;11.97;;;;;;;;;;2083220;28;20291;-56
2021/10/25 05:29:52;;;;;;;14.97;12.77;;;;;;;;;;2083534;28;20172;-57
2021/10/25 05:30:53;;;;;;;19.27;13.40;;;;;;;;;;2085592;28;20199;-53
2021/10/25 05:32:10;;;;;;;14.17;11.70;;;;;;;;;;2064810;28;20276;-55
2021/10/25 05:33:10;;;;;;;14.77;11.83;;;;;;;;;;2079442;28;20728;-57
2021/10/25 05:34:11;;;;;;;15.70;12.00;;;;;;;;;;2079444;28;20203;-53
2021/10/25 05:35:11;;;;;;;15.07;12.43;;;;;;;;;;2076394;28;20185;-56
2021/10/25 05:36:11;;;;;;;13.00;11.03;;;;;;;;;;2067235;28;20173;-52
2021/10/25 05:37:12;;;;;;;15.00;11.20;;;;;;;;;;2077414;28;20185;-52
2021/10/25 05:38:13;;;;;;;13.00;11.07;;;;;;;;;;2076242;28;20210;-55
2021/10/25 05:39:14;;;;;;;11.30;10.00;;;;;;;;;;2072388;28;20176;-51
2021/10/25 05:40:14;;;;;;;11.13;10.03;;;;;;;;;;2083067;28;20186;-57
2021/10/25 05:41:27;;;;;;;11.33;10.03;;;;;;;;;;2082861;28;20207;-48
2021/10/25 05:42:27;;;;;;;10.70;9.60;;;;;;;;;;2086178;28;20179;-50
2021/10/25 05:43:28;;;;;;;11.83;10.20;;;;;;;;;;2082698;28;20557;-51
2021/10/25 05:44:29;;;;;;;12.57;10.60;;;;;;;;;;2086180;28;20176;-56
2021/10/25 05:45:30;;;;;;;13.73;11.23;;;;;;;;;;2088011;28;20187;-55
2021/10/25 05:46:31;;;;;;;11.43;9.90;;;;;;;;;;2075011;28;20184;-51
2021/10/25 05:47:32;;;;;;;13.47;10.80;;;;;;;;;;2079952;23;20224;-62
2021/10/25 05:48:32;;;;;;;12.63;10.47;;;;;;;;;;2079098;28;20180;-60
2021/10/25 05:49:34;;;;;;;13.07;10.97;;;;;;;;;;2071418;28;20185;-63
2021/10/25 05:50:34;;;;;;;12.27;10.93;;;;;;;;;;2077229;28;20176;-60
2021/10/25 05:51:35;;;;;;;11.20;10.00;;;;;;;;;;2071427;28;20263;-64
2021/10/25 05:52:35;;;;;;;13.23;11.00;;;;;;;;;;2070255;28;20192;-64
2021/10/25 05:53:36;;;;;;;14.43;11.33;;;;;;;;;;2065491;28;20185;-64
2021/10/25 05:54:36;;;;;;;14.80;11.53;;;;;;;;;;2077885;28;20195;-64
2021/10/25 05:55:47;;;;;;;14.80;11.17;;;;;;;;;;2080294;28;20168;-65
2021/10/25 05:56:48;;;;;;;12.73;11.43;;;;;;;;;;2072261;28;20181;-61
2021/10/25 05:57:51;;;;;;;12.63;11.40;;;;;;;;;;2079761;28;20289;-63
2021/10/25 05:58:52;;;;;;;13.67;12.00;;;;;;;;;;2078781;28;20222;-62
2021/10/25 05:59:53;;;;;;;14.60;12.33;;;;;;;;;;2079259;28;20188;-60
2021/10/25 06:00:59;;;;;;;12.87;10.87;;;;;;;;;;2080019;28;20199;-62
2021/10/25 06:02:31;;;;;;;15.90;10.93;;;;;;;;;;2075846;28;20626;-63
2021/10/25 06:03:53;;;;;;;12.70;11.40;;;;;;;;;;2079784;28;20194;-65
2021/10/25 06:04:53;;;;;;;12.70;10.73;;;;;;;;;;2072691;28;20177;-62
2021/10/25 06:05:59;;;;;;;16.83;11.23;;;;;;;;;;2072042;28;20722;-64
2021/10/25 06:07:07;;;;;;;14.27;11.00;;;;;;;;;;2079832;28;20187;-59
2021/10/25 06:08:10;;;;;;;13.40;10.87;;;;;;;;;;2072061;28;20185;-60
2021/10/25 06:09:13;;;;;;;19.77;11.67;;;;;;;;;;2072837;28;20319;-59
2021/10/25 06:10:14;;;;;;;13.90;10.80;;;;;;;;;;2079487;28;20231;-58
2021/10/25 06:11:21;;;;;;;12.97;11.57;;;;;;;;;;2063752;28;20264;-62
2021/10/25 06:12:22;;;;;;;13.90;10.93;;;;;;;;;;2058940;28;20213;-62
2021/10/25 06:13:44;;;;;;;15.27;11.60;;;;;;;;;;2066685;28;20176;-57
2021/10/25 06:14:48;;;;;;;11.90;10.70;;;;;;;;;;2079936;28;20671;-58
2021/10/25 06:15:57;;;;;;;13.30;11.00;;;;;;;;;;2064372;28;20272;-57
2021/10/25 06:16:59;;;;;;;13.23;11.27;;;;;;;;;;2072045;28;20640;-55
2021/10/25 06:17:59;;;;;;;15.10;11.70;;;;;;;;;;2071749;28;20238;-62
2021/10/25 06:18:59;;;;;;;12.47;10.77;;;;;;;;;;2073712;28;20689;-57
2021/10/25 06:20:04;;;;;;;12.97;10.83;;;;;;;;;;2075486;28;20177;-60
2021/10/25 06:21:05;;;;;;;11.77;10.40;;;;;;;;;;2068376;28;20200;-58
2021/10/25 06:22:05;;;;;;;13.93;10.90;;;;;;;;;;2079394;28;20680;-59
2021/10/25 06:23:09;;;;;;;11.90;10.77;;;;;;;;;;2079663;28;20233;-60
2021/10/25 06:24:12;;;;;;;11.77;10.57;;;;;;;;;;2080384;28;20696;-58
2021/10/25 06:25:40;;;;;;;13.43;11.60;;;;;;;;;;2079959;28;20662;-60
2021/10/25 06:26:46;;;;;;;12.63;10.70;;;;;;;;;;2071396;28;20281;-62
2021/10/25 06:27:48;;;;;;;15.13;11.40;;;;;;;;;;2080544;28;20275;-56
2021/10/25 06:28:48;;;;;;;13.33;11.20;;;;;;;;;;2065509;28;20173;-58
2021/10/25 06:29:49;;;;;;;12.20;11.03;;;;;;;;;;2072570;28;20190;-60
2021/10/25 06:31:04;;;;;;;16.33;11.40;;;;;;;;;;2069319;28;20244;-59
2021/10/25 06:32:39;;;;;;;12.73;10.23;;;;;;;;;;2080976;28;20176;-62
2021/10/25 06:33:58;;;;;;;15.90;11.17;;;;;;;;;;2079833;28;20664;-61
2021/10/25 06:35:25;;;;;;;12.03;10.60;;;;;;;;;;2078314;28;20188;-64
2021/10/25 06:36:48;;;;;;;12.70;10.73;;;;;;;;;;2079924;28;20189;-64
2021/10/25 06:37:59;;;;;;;14.43;10.70;;;;;;;;;;2076765;28;20231;-63
2021/10/25 06:39:12;;;;;;;12.73;10.47;;;;;;;;;;2076837;28;20168;-61
2021/10/25 06:40:26;;;;;;;13.67;10.83;;;;;;;;;;2072309;28;20224;-60
2021/10/25 06:41:27;;;;;;;12.00;10.80;;;;;;;;;;2072237;28;20735;-58
2021/10/25 06:42:31;;;;;;;12.57;11.27;;;;;;;;;;2076062;28;20540;-61
2021/10/25 06:43:47;;;;;;;13.00;10.50;;;;;;;;;;2074642;28;20176;-61